Dawson, North Dakota
Current Conditions -  °F | °C
As of 11:52 PM on Friday 28 Nov 2014 (Local Time) from KBIS Reporting Station
Overcast Overcast  
Wind Chill: -11°   Ceiling: 11000
Heat Index: -7°   Visibility: 10mi
Dew Point: -8°   Wind: 6mph
Humidity: 89%   Direction: 140°SE
Pressure: 29.42"   Gusts: NA
Location:  46.87°N, 99.75°W
Report Text: KBIS 290552Z 14005KT 10SM OVC110 M07/M08 A2942 RMK AO2 SLP990 T10671083 11067 21100 410561139 56022
Loading
Personal Weather Stations






























Interactive Weather Map New forecast layout! Learn more

10-Day Weather Forecast

Advertisements
Track Severe Weather on mobile